Time;durP1;ratioP1;P1;durP2;ratioP2;P2;SDS_P1;SDS_P2;PMS_P1;PMS_P2;Temp;Humidity;BMP_temperature;BMP_pressure;BME280_temperature;BME280_humidity;BME280_pressure;Samples;Min_cycle;Max_cycle;Signal;HPM_P1;HPM_P2
2022/10/25 00:01:39;;;;;;;12.93;4.00;;;;;;;15.06;100.00;100392.21;5050645;58;1143106;-79
2022/10/25 00:06:46;;;;;;;8.70;4.13;;;;;;;15.01;100.00;100393.64;5077814;57;1143443;-77
2022/10/25 00:11:52;;;;;;;8.50;4.50;;;;;;;14.97;100.00;100387.77;5043869;58;1141030;-77
2022/10/25 00:16:57;;;;;;;5.40;4.13;;;;;;;14.91;100.00;100389.72;5039407;58;1140916;-78
2022/10/25 00:22:03;;;;;;;11.03;4.33;;;;;;;14.84;100.00;100386.46;5039457;58;1141275;-79
2022/10/25 00:27:09;;;;;;;8.30;3.97;;;;;;;14.76;100.00;100381.41;5039401;58;1143242;-78
2022/10/25 00:32:15;;;;;;;6.23;3.80;;;;;;;14.73;100.00;100393.67;5000905;58;1141178;-77
2022/10/25 00:37:21;;;;;;;11.23;4.97;;;;;;;14.72;100.00;100401.81;4970374;59;1141087;-78
2022/10/25 00:42:28;;;;;;;7.43;4.23;;;;;;;14.65;100.00;100398.08;4889650;59;1143149;-78
2022/10/25 00:47:44;;;;;;;8.03;3.97;;;;;;;14.59;100.00;100402.65;4889924;59;1141199;-79
2022/10/25 00:52:53;;;;;;;12.90;4.20;;;;;;;14.56;100.00;100400.28;4937576;59;1141345;-77
2022/10/25 00:58:06;;;;;;;;;;;;;;;14.54;100.00;100391.11;5034778;58;1143095;-77
2022/10/25 01:03:15;;;;;;;9.27;4.20;;;;;;;14.50;100.00;100399.55;5036908;57;978376;-77
2022/10/25 01:08:23;;;;;;;10.60;3.80;;;;;;;14.41;100.00;100399.92;5029583;58;1139069;-78
2022/10/25 01:13:29;;;;;;;7.57;4.20;;;;;;;14.36;100.00;100391.01;4970773;59;1142967;-79
2022/10/25 01:18:53;;;;;;;9.77;3.83;;;;;;;14.31;100.00;100385.80;4970748;59;1141049;-78
2022/10/25 01:24:12;;;;;;;8.80;4.60;;;;;;;14.26;100.00;100384.90;4974166;57;1141033;-78
2022/10/25 01:29:34;;;;;;;20.47;4.83;;;;;;;14.23;100.00;100389.17;4892310;58;1141238;-78
2022/10/25 01:34:54;;;;;;;12.23;4.33;;;;;;;14.17;100.00;100392.44;4941634;60;1141040;-76
2022/10/25 01:40:19;;;;;;;8.20;4.43;;;;;;;14.11;100.00;100394.33;4954452;59;1141096;-76
2022/10/25 01:45:30;;;;;;;11.90;5.20;;;;;;;14.11;100.00;100381.52;4992542;59;1139123;-77
2022/10/25 01:50:40;;;;;;;9.27;4.33;;;;;;;14.06;100.00;100385.94;4946967;59;1141187;-78
2022/10/25 01:55:53;;;;;;;11.87;5.03;;;;;;;14.01;100.00;100374.92;4929834;58;1138907;-77
2022/10/25 02:01:27;;;;;;;6.33;3.62;;;;;;;13.94;100.00;100379.95;4994873;59;1139184;-78
2022/10/25 02:06:59;;;;;;;5.97;3.40;;;;;;;13.92;100.00;100379.75;4996545;59;1141091;-77
2022/10/25 02:12:08;;;;;;;6.70;3.77;;;;;;;13.82;100.00;100377.61;5020509;58;1141154;-76
2022/10/25 02:17:23;;;;;;;7.50;3.70;;;;;;;13.72;100.00;100379.81;5055265;58;1141065;-78
2022/10/25 02:22:33;;;;;;;8.60;4.00;;;;;;;13.71;100.00;100374.15;5096812;57;1141100;-77
2022/10/25 02:27:40;;;;;;;11.00;4.40;;;;;;;13.66;100.00;100380.38;5038961;58;1141005;-78
2022/10/25 02:32:47;;;;;;;9.37;4.10;;;;;;;13.54;100.00;100372.20;5038604;58;1143009;-78
2022/10/25 02:37:52;;;;;;;12.40;4.65;;;;;;;13.54;100.00;100372.20;5027231;58;1141291;-78
2022/10/25 02:42:58;;;;;;;7.30;3.43;;;;;;;13.58;100.00;100386.06;4975424;59;1143203;-78
2022/10/25 02:48:05;;;;;;;8.53;3.77;;;;;;;13.58;100.00;100386.90;5006023;58;1141327;-76
2022/10/25 02:53:10;;;;;;;7.67;3.60;;;;;;;13.53;100.00;100382.98;5005459;58;1141075;-78
2022/10/25 02:58:16;;;;;;;6.03;4.13;;;;;;;13.51;100.00;100382.27;5055375;58;1141054;-78
2022/10/25 03:03:22;;;;;;;13.03;4.33;;;;;;;13.45;100.00;100386.32;5054213;57;1141060;-77
2022/10/25 03:08:28;;;;;;;12.65;4.55;;;;;;;13.42;100.00;100383.13;5091174;57;1143160;-77
2022/10/25 03:13:35;;;;;;;8.97;3.90;;;;;;;13.39;100.00;100377.60;5085273;57;1143056;-78
2022/10/25 03:18:41;;;;;;;9.83;3.90;;;;;;;13.38;100.00;100379.42;5084922;57;1141058;-77
2022/10/25 03:23:47;;;;;;;11.67;4.10;;;;;;;13.38;100.00;100394.52;5104461;57;1140931;-76
2022/10/25 03:28:53;;;;;;;8.47;3.57;;;;;;;13.35;100.00;100381.02;5122088;57;1143218;-78
2022/10/25 03:33:58;;;;;;;11.37;4.33;;;;;;;13.35;100.00;100386.82;5120967;57;1141153;-77
2022/10/25 03:39:04;;;;;;;10.83;3.87;;;;;;;13.29;100.00;100388.20;5118443;57;1143113;-77
2022/10/25 03:44:10;;;;;;;13.03;3.93;;;;;;;13.27;100.00;100397.32;5096789;57;1143104;-76
2022/10/25 03:49:16;;;;;;;5.77;3.57;;;;;;;13.23;100.00;100388.78;5145740;57;1143075;-77
2022/10/25 03:54:21;;;;;;;8.73;3.90;;;;;;;13.22;100.00;100391.58;5008692;57;1141027;-76
2022/10/25 03:59:27;;;;;;;6.67;3.30;;;;;;;13.22;100.00;100397.73;5029919;56;1141074;-76
2022/10/25 04:04:34;;;;;;;11.03;4.37;;;;;;;13.20;100.00;100396.19;5051779;57;1141175;-76
2022/10/25 04:09:40;;;;;;;11.50;3.90;;;;;;;13.19;100.00;100386.53;5145971;57;1143086;-75
2022/10/25 04:14:45;;;;;;;9.73;4.07;;;;;;;13.19;100.00;100394.50;5116256;56;1143225;-75
2022/10/25 04:19:51;;;;;;;9.27;3.97;;;;;;;13.18;100.00;100397.65;4949928;59;1141025;-76
2022/10/25 04:24:57;;;;;;;10.43;3.90;;;;;;;13.17;100.00;100396.45;4946520;59;1139002;-76
2022/10/25 04:30:03;;;;;;;9.23;3.60;;;;;;;13.17;100.00;100396.45;4889954;60;1141087;-76
2022/10/25 04:35:09;;;;;;;11.53;4.47;;;;;;;13.14;100.00;100388.23;4909390;60;1139114;-76
2022/10/25 04:40:16;;;;;;;14.93;4.50;;;;;;;13.13;100.00;100392.39;5013953;58;1141184;-76
2022/10/25 04:45:21;;;;;;;9.50;3.90;;;;;;;13.10;100.00;100385.53;5145327;57;1141343;-76
2022/10/25 04:50:27;;;;;;;11.80;3.97;;;;;;;13.10;100.00;100376.23;5134402;57;1138983;-76
2022/10/25 04:55:33;;;;;;;8.23;3.97;;;;;;;13.09;100.00;100381.20;4983449;58;1141094;-76
2022/10/25 05:00:39;;;;;;;14.13;4.43;;;;;;;13.08;100.00;100387.48;4966988;59;1139184;-76
2022/10/25 05:05:44;;;;;;;10.23;4.60;;;;;;;13.09;100.00;100379.03;4966927;59;1141121;-76
2022/10/25 05:10:56;;;;;;;11.50;4.60;;;;;;;13.06;100.00;100392.09;4967024;59;1141093;-76
2022/10/25 05:16:03;;;;;;;11.85;4.58;;;;;;;12.99;100.00;100390.95;4966384;59;1141667;-76
2022/10/25 05:21:10;;;;;;;14.00;4.63;;;;;;;12.95;100.00;100394.88;4965960;59;1141330;-75
2022/10/25 05:26:19;;;;;;;15.40;4.23;;;;;;;12.92;100.00;100395.14;5053268;57;1141120;-76
2022/10/25 05:31:30;;;;;;;10.20;4.60;;;;;;;12.89;100.00;100393.59;5004901;58;1141424;-76
2022/10/25 05:36:36;;;;;;;14.57;5.87;;;;;;;12.87;100.00;100394.22;5054490;57;1141059;-76
2022/10/25 05:41:42;;;;;;;9.40;4.23;;;;;;;12.88;100.00;100395.90;4983863;58;1139252;-76
2022/10/25 05:46:50;;;;;;;9.67;4.93;;;;;;;12.89;100.00;100403.37;4922900;59;1137105;-76
2022/10/25 05:51:57;;;;;;;11.00;4.63;;;;;;;12.86;100.00;100408.46;4997416;58;1141071;-76
2022/10/25 05:57:02;;;;;;;11.10;4.10;;;;;;;12.89;100.00;100416.16;5040045;58;1143060;-76
2022/10/25 06:02:10;;;;;;;9.60;3.87;;;;;;;12.91;100.00;100427.48;5108709;57;1143138;-76
2022/10/25 06:07:16;;;;;;;16.83;4.47;;;;;;;12.91;100.00;100434.61;5122563;57;1141106;-75
2022/10/25 06:12:21;;;;;;;10.57;3.67;;;;;;;12.90;100.00;100436.42;5055857;58;1143189;-75
2022/10/25 06:17:27;;;;;;;14.63;4.47;;;;;;;12.89;100.00;100446.69;5017230;58;1143175;-76
2022/10/25 06:22:33;;;;;;;12.97;4.77;;;;;;;12.86;100.00;100435.49;4969944;59;1143203;-75
2022/10/25 06:27:39;;;;;;;6.80;3.73;;;;;;;12.93;100.00;100451.24;5016201;58;1143228;-75
2022/10/25 06:32:45;;;;;;;8.03;4.33;;;;;;;12.95;100.00;100453.28;4970067;59;1141176;-76
2022/10/25 06:37:51;;;;;;;11.07;4.40;;;;;;;12.94;100.00;100455.09;4948746;59;1141049;-76
2022/10/25 06:42:57;;;;;;;11.30;4.13;;;;;;;12.96;100.00;100461.11;4912148;59;1143287;-76
2022/10/25 06:48:03;;;;;;;11.03;4.23;;;;;;;12.95;100.00;100462.57;4918727;60;1143225;-76
2022/10/25 06:53:09;;;;;;;14.20;4.37;;;;;;;13.03;100.00;100478.64;4941236;59;1143236;-76
2022/10/25 06:58:15;;;;;;;14.47;4.43;;;;;;;13.07;100.00;100481.88;4928076;59;1143176;-76
2022/10/25 07:03:28;;;;;;;12.30;4.40;;;;;;;13.10;100.00;100478.47;4956099;58;1143238;-76
2022/10/25 07:08:29;;;;;;;7.53;3.80;;;;;;;13.15;100.00;100479.40;4939324;58;1143418;-76
2022/10/25 07:13:35;;;;;;;9.63;4.57;;;;;;;13.18;100.00;100492.41;4928817;59;1141114;-76
2022/10/25 07:18:41;;;;;;;7.63;3.97;;;;;;;13.19;100.00;100489.62;4897200;59;1141172;-76
2022/10/25 07:23:49;;;;;;;10.40;3.63;;;;;;;13.29;100.00;100501.61;4904157;59;1141178;-75
2022/10/25 07:28:56;;;;;;;11.40;4.13;;;;;;;13.34;100.00;100509.50;4902320;59;1143464;-76
2022/10/25 07:34:05;;;;;;;10.60;4.00;;;;;;;13.40;100.00;100510.78;4910561;59;1143223;-76
2022/10/25 07:39:11;;;;;;;6.57;3.20;;;;;;;13.45;100.00;100512.52;4902044;59;1143206;-76
2022/10/25 07:44:16;;;;;;;8.97;3.80;;;;;;;13.51;100.00;100515.13;4884465;60;1141295;-76
2022/10/25 07:49:22;;;;;;;11.97;3.43;;;;;;;13.69;100.00;100502.84;4898547;59;1141145;-76
2022/10/25 07:54:27;;;;;;;7.47;3.50;;;;;;;13.76;100.00;100510.59;4889841;59;1143227;-76
2022/10/25 07:59:33;;;;;;;9.77;3.93;;;;;;;13.80;100.00;100512.00;4897347;59;1141161;-76
2022/10/25 08:04:39;;;;;;;8.33;3.47;;;;;;;13.86;100.00;100519.91;4894297;59;1141170;-76
2022/10/25 08:09:45;;;;;;;7.60;3.60;;;;;;;13.84;100.00;100520.54;4894868;59;1141092;-76
2022/10/25 08:14:50;;;;;;;14.10;3.93;;;;;;;13.79;100.00;100516.96;4896514;59;1141241;-76
2022/10/25 08:19:56;;;;;;;7.60;3.50;;;;;;;13.69;100.00;100516.97;5040231;58;1143263;-76
2022/10/25 08:25:03;;;;;;;6.23;2.90;;;;;;;13.60;100.00;100511.14;5028701;58;1141245;-77
2022/10/25 08:30:09;;;;;;;8.77;2.80;;;;;;;13.65;100.00;100506.75;5048835;58;1141247;-77
2022/10/25 08:35:15;;;;;;;13.97;3.90;;;;;;;13.68;100.00;100535.22;5071464;58;1141053;-78
2022/10/25 08:40:48;;;;;;;10.67;4.13;;;;;;;13.67;100.00;100533.55;5017944;58;1143148;-77
2022/10/25 08:46:04;;;;;;;7.57;3.13;;;;;;;13.69;100.00;100529.42;5029064;58;1141058;-77
2022/10/25 08:51:14;;;;;;;8.07;3.53;;;;;;;13.70;100.00;100535.93;5040324;58;1138924;-77
2022/10/25 08:56:21;;;;;;;6.20;3.80;;;;;;;13.71;100.00;100542.92;5045513;58;1139035;-77
2022/10/25 09:01:39;;;;;;;12.03;4.43;;;;;;;13.73;100.00;100534.81;5046680;58;1138967;-77
2022/10/25 09:06:50;;;;;;;8.73;3.77;;;;;;;13.76;100.00;100535.84;5034816;58;1141150;-76
2022/10/25 09:12:25;;;;;;;17.57;4.80;;;;;;;13.88;100.00;100538.74;5037074;58;1138987;-77
2022/10/25 09:17:44;;;;;;;11.23;4.47;;;;;;;13.96;100.00;100546.84;4997043;58;1139193;-77
2022/10/25 09:23:00;;;;;;;13.87;4.70;;;;;;;14.02;100.00;100549.44;5009259;58;1143408;-77
2022/10/25 09:28:12;;;;;;;8.97;4.67;;;;;;;14.06;100.00;100549.49;4767013;61;1143146;-77
2022/10/25 09:33:22;;;;;;;6.27;3.57;;;;;;;14.19;100.00;100551.89;4776991;61;1141190;-77
2022/10/25 09:38:41;;;;;;;10.23;3.73;;;;;;;14.24;100.00;100562.44;4777359;60;1141175;-77
2022/10/25 09:44:06;;;;;;;16.07;11.27;;;;;;;14.25;100.00;100556.63;4825129;61;1143441;-77
2022/10/25 09:49:26;;;;;;;29.10;9.60;;;;;;;14.28;100.00;100562.51;4813108;61;1145448;-76
2022/10/25 09:54:39;;;;;;;17.97;10.43;;;;;;;14.29;100.00;100568.18;4816796;59;1143153;-75
2022/10/25 09:59:49;;;;;;;13.63;3.53;;;;;;;14.37;100.00;100568.30;4814967;60;1145373;-75
2022/10/25 10:04:55;;;;;;;9.20;3.53;;;;;;;14.34;100.00;100570.42;4996801;57;1143148;-75
2022/10/25 10:10:05;;;;;;;9.77;4.10;;;;;;;14.31;100.00;100564.05;5028726;58;1141106;-78
2022/10/25 10:15:22;;;;;;;14.47;4.03;;;;;;;14.32;100.00;100563.08;5059971;57;1141259;-78
2022/10/25 10:20:28;;;;;;;4.50;2.40;;;;;;;14.32;100.00;100561.74;5010855;58;1143606;-77
2022/10/25 10:25:34;;;;;;;5.93;2.93;;;;;;;14.36;100.00;100568.47;5021770;58;1141109;-78
2022/10/25 10:30:40;;;;;;;7.47;2.83;;;;;;;14.41;100.00;100570.22;5058954;58;1141076;-78
2022/10/25 10:35:46;;;;;;;9.97;2.90;;;;;;;14.47;100.00;100568.83;5042650;58;1141025;-78
2022/10/25 10:41:05;;;;;;;8.70;2.40;;;;;;;14.52;100.00;100567.88;5019170;58;1141031;-75
2022/10/25 10:46:24;;;;;;;4.90;2.53;;;;;;;14.52;100.00;100575.86;5029321;58;1139065;-76
2022/10/25 10:51:39;;;;;;;9.60;2.23;;;;;;;14.53;100.00;100577.55;5013715;58;1139307;-76
2022/10/25 10:56:52;;;;;;;12.90;3.07;;;;;;;14.55;100.00;100583.08;4983951;58;1139363;-76
2022/10/25 11:02:13;;;;;;;7.70;2.60;;;;;;;14.57;100.00;100582.45;4995562;58;1141073;-76
2022/10/25 11:07:29;;;;;;;7.10;2.70;;;;;;;14.57;100.00;100585.11;5017061;58;1139232;-77
2022/10/25 11:12:35;;;;;;;7.70;2.07;;;;;;;14.58;100.00;100582.80;5017607;58;1138982;-76
2022/10/25 11:17:58;;;;;;;5.13;2.17;;;;;;;14.59;100.00;100585.81;5003146;58;1139015;-77
2022/10/25 11:23:35;;;;;;;3.72;2.10;;;;;;;14.59;100.00;100579.66;4959702;58;1141032;-76
2022/10/25 11:29:01;;;;;;;16.43;2.57;;;;;;;14.62;100.00;100581.55;4917507;59;1141123;-76
2022/10/25 11:34:23;;;;;;;5.87;1.90;;;;;;;14.66;100.00;100586.94;4938211;58;1143169;-76
2022/10/25 11:39:46;;;;;;;8.60;2.90;;;;;;;14.68;100.00;100578.28;4984970;58;1141218;-76
2022/10/25 11:45:14;;;;;;;8.33;2.53;;;;;;;14.70;100.00;100584.80;4966443;59;1141092;-76
2022/10/25 11:51:00;;;;;;;4.87;1.67;;;;;;;14.77;100.00;100589.91;4966306;58;1141088;-76
2022/10/25 11:56:42;;;;;;;11.10;3.07;;;;;;;14.89;100.00;100583.91;4966412;58;1141596;-76
2022/10/25 12:02:13;;;;;;;9.83;2.20;;;;;;;14.96;100.00;100581.03;4966146;59;1141310;-75
2022/10/25 12:07:35;;;;;;;4.03;2.00;;;;;;;15.01;100.00;100584.08;4966493;59;1139200;-75
2022/10/25 12:12:51;;;;;;;6.83;1.40;;;;;;;15.04;100.00;100575.80;4966179;59;1139024;-75
2022/10/25 12:17:57;;;;;;;5.47;1.67;;;;;;;15.03;100.00;100582.95;4966434;59;1138918;-76
2022/10/25 12:23:09;;;;;;;6.67;1.97;;;;;;;15.10;100.00;100591.21;4982701;58;1136925;-75
2022/10/25 12:28:34;;;;;;;7.57;1.30;;;;;;;15.23;100.00;100598.38;4942933;58;1141137;-76
2022/10/25 12:34:14;;;;;;;7.57;1.80;;;;;;;15.36;100.00;100595.37;4997966;58;1141073;-75
2022/10/25 12:39:27;;;;;;;3.57;1.30;;;;;;;15.35;100.00;100593.19;4976535;58;1141187;-75
2022/10/25 12:44:55;;;;;;;7.57;1.50;;;;;;;15.34;100.00;100594.67;4891518;59;1141308;-76
2022/10/25 12:50:36;;;;;;;2.97;1.40;;;;;;;15.42;100.00;100594.30;4887404;59;1141257;-75
2022/10/25 12:56:05;;;;;;;2.07;1.10;;;;;;;15.42;100.00;100594.30;4967657;58;1141065;-76
2022/10/25 13:01:30;;;;;;;7.43;2.37;;;;;;;15.49;100.00;100590.03;4966271;59;1141403;-75
2022/10/25 13:06:44;;;;;;;9.43;1.63;;;;;;;15.46;100.00;100600.98;4966966;59;1141354;-75
2022/10/25 13:12:00;;;;;;;5.43;1.33;;;;;;;15.47;100.00;100605.33;4975598;58;1139299;-75
2022/10/25 13:17:22;;;;;;;6.80;1.80;;;;;;;15.59;100.00;100604.66;4950063;58;1139787;-75
2022/10/25 13:22:39;;;;;;;1.20;0.90;;;;;;;15.58;100.00;100608.34;5026928;58;1139397;-76
2022/10/25 13:28:18;;;;;;;9.97;2.73;;;;;;;15.45;100.00;100611.79;5049244;58;1139303;-76
2022/10/25 13:33:28;;;;;;;9.03;1.83;;;;;;;15.40;100.00;100621.58;5008751;58;1136887;-76
2022/10/25 13:38:37;;;;;;;7.87;2.07;;;;;;;15.43;100.00;100621.75;4982740;59;1141251;-75
2022/10/25 13:44:02;;;;;;;7.10;1.70;;;;;;;15.45;100.00;100624.63;4949371;59;1141051;-75
2022/10/25 13:49:30;;;;;;;4.80;1.67;;;;;;;15.43;100.00;100625.26;4947355;59;1141321;-75
2022/10/25 13:54:47;;;;;;;6.50;2.17;;;;;;;15.42;100.00;100624.95;4939519;58;1141192;-75
2022/10/25 14:00:01;;;;;;;3.87;1.43;;;;;;;15.43;100.00;100625.75;4959719;59;1141380;-75
2022/10/25 14:05:11;;;;;;;10.07;1.40;;;;;;;15.48;100.00;100640.82;4964957;59;1141365;-74
2022/10/25 14:10:25;;;;;;;6.13;1.80;;;;;;;15.48;100.00;100639.48;4927889;59;1142936;-75
2022/10/25 14:15:41;;;;;;;7.50;2.20;;;;;;;15.45;100.00;100655.77;4884998;60;1141061;-75
2022/10/25 14:20:51;;;;;;;9.53;2.27;;;;;;;15.42;100.00;100646.76;4933644;59;1141197;-76
2022/10/25 14:26:00;;;;;;;6.67;2.03;;;;;;;15.38;100.00;100646.20;5016932;59;1141079;-75
2022/10/25 14:31:08;;;;;;;2.93;1.60;;;;;;;15.37;100.00;100644.52;5017011;59;1141275;-76
2022/10/25 14:36:40;;;;;;;5.30;1.97;;;;;;;15.37;100.00;100647.19;4978249;58;1141369;-75
2022/10/25 14:41:43;;;;;;;4.40;1.50;;;;;;;15.33;100.00;100647.13;4964904;59;1141045;-75
2022/10/25 14:46:49;;;;;;;4.33;1.17;;;;;;;15.30;100.00;100646.58;4965810;59;1141144;-75
2022/10/25 14:51:59;;;;;;;6.87;1.83;;;;;;;15.27;100.00;100646.40;4998792;58;1141090;-75
2022/10/25 14:57:09;;;;;;;6.30;2.03;;;;;;;15.25;100.00;100640.37;4973873;58;1138953;-75
2022/10/25 15:02:36;;;;;;;7.60;1.70;;;;;;;15.20;100.00;100639.95;5028139;58;1139007;-75
2022/10/25 15:07:45;;;;;;;5.13;2.10;;;;;;;15.23;100.00;100647.67;5046910;58;1139077;-75
2022/10/25 15:12:53;;;;;;;7.30;3.20;;;;;;;15.20;100.00;100651.95;5046997;58;1139023;-75
2022/10/25 15:17:59;;;;;;;5.23;2.30;;;;;;;15.15;100.00;100650.20;5046864;58;1139040;-75
2022/10/25 15:23:18;;;;;;;7.30;2.10;;;;;;;15.11;100.00;100654.16;5046358;58;1139015;-76
2022/10/25 15:28:24;;;;;;;4.47;2.73;;;;;;;15.07;100.00;100650.94;5045797;58;1139091;-75
2022/10/25 15:33:32;;;;;;;3.77;2.00;;;;;;;15.03;100.00;100654.03;5045609;58;1139236;-75
2022/10/25 15:38:38;;;;;;;5.30;2.73;;;;;;;14.98;100.00;100657.12;4995637;58;1138941;-75
2022/10/25 15:43:43;;;;;;;4.00;1.70;;;;;;;14.94;100.00;100660.23;4965538;59;1137380;-75
2022/10/25 15:48:49;;;;;;;11.07;2.50;;;;;;;14.88;100.00;100661.63;4965507;59;1137295;-75
2022/10/25 15:53:56;;;;;;;5.83;1.90;;;;;;;14.80;100.00;100672.17;4945900;59;1172283;-75
2022/10/25 15:59:02;;;;;;;6.07;1.93;;;;;;;14.80;100.00;100672.17;4979643;58;1141245;-75
2022/10/25 16:04:10;;;;;;;7.20;2.83;;;;;;;14.76;100.00;100676.09;5045955;58;1141397;-75
2022/10/25 16:09:16;;;;;;;8.60;2.80;;;;;;;14.70;100.00;100682.81;5045996;58;1141462;-75
2022/10/25 16:14:25;;;;;;;7.10;2.70;;;;;;;14.65;100.00;100688.23;5045849;58;1140991;-76
2022/10/25 16:19:32;;;;;;;7.77;3.30;;;;;;;14.65;100.00;100689.56;5045493;58;1141136;-75
2022/10/25 16:24:37;;;;;;;62.93;28.37;;;;;;;14.59;100.00;100698.94;5046385;58;1141171;-74
2022/10/25 16:29:43;;;;;;;44.27;27.60;;;;;;;14.59;100.00;100698.94;5046686;58;1145168;-76
2022/10/25 16:34:48;;;;;;;14.13;6.80;;;;;;;14.57;100.00;100700.05;5046493;58;1145295;-75
2022/10/25 16:39:54;;;;;;;40.03;21.17;;;;;;;14.55;100.00;100702.86;4976704;58;1143244;-75
2022/10/25 16:45:01;;;;;;;77.60;32.67;;;;;;;14.52;100.00;100707.13;4966960;59;1145156;-75
2022/10/25 16:50:08;;;;;;;54.60;28.43;;;;;;;14.50;100.00;100710.44;4970019;58;1145346;-75
2022/10/25 16:55:15;;;;;;;34.03;24.40;;;;;;;14.49;100.00;100705.25;5003398;58;1145534;-75
2022/10/25 17:00:21;;;;;;;31.40;17.00;;;;;;;14.42;100.00;100717.77;5001521;58;1145189;-75
2022/10/25 17:05:31;;;;;;;20.20;8.63;;;;;;;14.39;100.00;100719.34;5047183;58;1145230;-75
2022/10/25 17:10:37;;;;;;;18.93;7.90;;;;;;;14.35;100.00;100724.61;5047131;58;1143105;-76
2022/10/25 17:15:43;;;;;;;252.60;89.30;;;;;;;14.33;100.00;100726.56;5047468;58;1143295;-76
2022/10/25 17:20:49;;;;;;;85.47;46.67;;;;;;;14.26;100.00;100729.41;5047028;58;1147332;-75
2022/10/25 17:26:02;;;;;;;20.47;9.50;;;;;;;14.18;100.00;100736.41;5049847;58;1145213;-76
2022/10/25 17:31:10;;;;;;;923.33;305.70;;;;;;;14.09;100.00;100743.37;5050246;58;1143150;-75
2022/10/25 17:36:19;;;;;;;168.53;56.23;;;;;;;14.03;100.00;100746.10;5040487;58;1149379;-76
2022/10/25 17:41:25;;;;;;;19.77;8.95;;;;;;;14.00;100.00;100764.98;4950278;59;1147483;-76
2022/10/25 17:46:32;;;;;;;17.00;9.03;;;;;;;13.98;100.00;100764.27;4933920;59;1143608;-75
2022/10/25 17:51:39;;;;;;;12.57;5.80;;;;;;;13.99;100.00;100763.30;4945545;59;1143214;-76
2022/10/25 17:56:45;;;;;;;21.50;17.33;;;;;;;13.99;100.00;100761.97;4900737;59;1143264;-76
2022/10/25 18:01:51;;;;;;;231.43;111.93;;;;;;;13.99;100.00;100759.31;4931744;59;1145558;-76
2022/10/25 18:06:57;;;;;;;141.93;80.33;;;;;;;14.00;100.00;100762.81;4914538;58;1149516;-76
2022/10/25 18:12:04;;;;;;;75.67;40.60;;;;;;;14.03;100.00;100763.39;5008463;59;1147314;-76
2022/10/25 18:17:10;;;;;;;24.57;14.93;;;;;;;14.07;100.00;100764.78;5000082;58;1145201;-76
2022/10/25 18:22:19;;;;;;;41.07;25.80;;;;;;;14.11;100.00;100777.81;5019193;58;1145446;-76
2022/10/25 18:27:24;;;;;;;15.37;9.10;;;;;;;14.05;100.00;100777.89;5052517;58;1145496;-76
2022/10/25 18:32:30;;;;;;;16.83;5.07;;;;;;;14.01;100.00;100781.30;4976088;58;1143530;-76
2022/10/25 18:37:36;;;;;;;14.33;5.33;;;;;;;13.98;100.00;100774.91;5041285;58;1143682;-76
2022/10/25 18:42:42;;;;;;;24.40;11.83;;;;;;;14.01;100.00;100777.30;5043606;58;1143411;-76
2022/10/25 18:47:52;;;;;;;19.70;7.20;;;;;;;14.08;100.00;100781.09;5043620;58;1145532;-75
2022/10/25 18:52:58;;;;;;;15.30;6.27;;;;;;;14.05;100.00;100778.70;5042685;58;1141382;-76
2022/10/25 18:58:05;;;;;;;9.70;4.27;;;;;;;13.98;100.00;100786.88;5059963;58;1141449;-76
2022/10/25 19:03:15;;;;;;;13.90;5.60;;;;;;;13.87;100.00;100786.98;5039473;58;1138991;-76
2022/10/25 19:08:22;;;;;;;14.60;6.53;;;;;;;13.75;100.00;100791.20;5036296;58;1141193;-76
2022/10/25 19:13:29;;;;;;;9.87;5.87;;;;;;;13.65;100.00;100793.30;5039270;58;1141149;-77
2022/10/25 19:18:37;;;;;;;13.67;5.73;;;;;;;13.59;100.00;100799.64;4959494;59;1139062;-76
2022/10/25 19:23:45;;;;;;;46.37;24.98;;;;;;;13.54;100.00;100801.84;4974767;59;1141149;-76
2022/10/25 19:29:00;;;;;;;9.17;6.50;;;;;;;13.54;100.00;100804.02;5065508;58;1143909;-76
2022/10/25 19:34:08;;;;;;;13.50;5.80;;;;;;;13.53;100.00;100813.44;5081328;57;1139028;-76
2022/10/25 19:39:15;;;;;;;14.07;6.30;;;;;;;13.49;100.00;100808.88;5026172;57;1141108;-76
2022/10/25 19:44:21;;;;;;;9.03;5.00;;;;;;;13.45;100.00;100818.06;4997732;58;1141327;-76
2022/10/25 19:49:27;;;;;;;19.50;6.17;;;;;;;13.38;100.00;100820.91;5010597;57;1138942;-76
2022/10/25 19:54:33;;;;;;;12.73;5.53;;;;;;;13.32;100.00;100828.05;5053109;58;1139224;-76
2022/10/25 19:59:39;;;;;;;10.10;4.53;;;;;;;13.17;100.00;100819.55;5056109;58;1139225;-76
2022/10/25 20:04:45;;;;;;;12.93;5.40;;;;;;;13.17;100.00;100819.55;5100803;58;21668;-76
2022/10/25 20:09:51;;;;;;;15.63;5.33;;;;;;;13.13;100.00;100833.20;5081371;57;1138977;-76
2022/10/25 20:14:57;;;;;;;10.25;5.28;;;;;;;13.03;100.00;100837.93;5081879;58;1143137;-76
2022/10/25 20:20:04;;;;;;;13.78;5.15;;;;;;;12.95;100.00;100836.41;5000652;59;1143097;-76
2022/10/25 20:25:10;;;;;;;11.90;5.33;;;;;;;12.88;100.00;100831.23;4971679;58;1143166;-76
2022/10/25 20:30:16;;;;;;;14.40;5.63;;;;;;;12.85;100.00;100835.46;4872642;60;1143200;-76
2022/10/25 20:35:21;;;;;;;9.83;5.03;;;;;;;12.82;100.00;100846.84;4872395;60;1143282;-76
2022/10/25 20:40:27;;;;;;;10.93;5.40;;;;;;;12.74;100.00;100848.77;4874171;60;1141132;-75
2022/10/25 20:45:33;;;;;;;18.50;6.00;;;;;;;12.69;100.00;100852.27;4873579;60;1143304;-75
2022/10/25 20:50:44;;;;;;;15.67;5.37;;;;;;;12.64;100.00;100850.02;4993172;59;1143245;-75
2022/10/25 20:55:47;;;;;;;11.20;5.60;;;;;;;12.60;100.00;100866.30;5007812;58;1143153;-75
2022/10/25 21:00:56;;;;;;;22.33;10.33;;;;;;;12.51;100.00;100863.91;4970879;58;1143172;-76
2022/10/25 21:06:05;;;;;;;15.80;5.53;;;;;;;12.46;100.00;100863.43;5055807;58;1145442;-77
2022/10/25 21:11:13;;;;;;;12.60;4.80;;;;;;;12.46;100.00;100873.20;5056010;58;1143260;-76
2022/10/25 21:16:21;;;;;;;12.73;5.40;;;;;;;12.43;100.00;100878.73;5055850;58;1143193;-75
2022/10/25 21:21:26;;;;;;;11.80;5.30;;;;;;;12.38;100.00;100882.23;5055729;58;1143446;-76
2022/10/25 21:26:32;;;;;;;9.47;4.60;;;;;;;12.37;100.00;100888.53;5061863;58;1143109;-76
2022/10/25 21:31:38;;;;;;;8.30;4.43;;;;;;;12.37;100.00;100884.06;5077155;58;1141093;-76
2022/10/25 21:36:44;;;;;;;6.90;4.77;;;;;;;12.35;100.00;100882.02;5057304;58;1141101;-76
2022/10/25 21:41:51;;;;;;;10.43;4.30;;;;;;;12.29;100.00;100887.31;5039393;58;1141531;-76
2022/10/25 21:46:58;;;;;;;6.93;3.87;;;;;;;12.21;100.00;100888.41;5039498;58;1143177;-75
2022/10/25 21:52:04;;;;;;;11.30;4.63;;;;;;;12.13;100.00;100884.17;5044128;58;1141169;-75
2022/10/25 21:57:11;;;;;;;7.17;4.53;;;;;;;12.08;100.00;100890.79;5041633;58;1143437;-75
2022/10/25 22:02:17;;;;;;;10.37;5.13;;;;;;;12.01;100.00;100884.29;5103858;57;1141355;-76
2022/10/25 22:07:22;;;;;;;11.23;5.17;;;;;;;11.98;100.00;100887.54;5092712;57;1143242;-76
2022/10/25 22:12:28;;;;;;;5.53;4.23;;;;;;;11.97;100.00;100894.28;5122114;57;1143398;-76
2022/10/25 22:17:34;;;;;;;8.20;4.60;;;;;;;11.91;100.00;100894.77;5122065;57;1141136;-76
2022/10/25 22:22:39;;;;;;;8.33;4.40;;;;;;;11.86;100.00;100889.81;5122116;57;1141205;-75
2022/10/25 22:27:45;;;;;;;54.20;20.27;;;;;;;11.95;100.00;100889.58;5118401;57;1141108;-76
2022/10/25 22:32:51;;;;;;;41.90;19.53;;;;;;;12.06;100.00;100882.98;5112211;57;1145385;-75
2022/10/25 22:37:57;;;;;;;26.70;15.17;;;;;;;12.12;100.00;100887.78;5057342;57;1145250;-75
2022/10/25 22:43:04;;;;;;;18.20;11.03;;;;;;;12.14;100.00;100898.27;5000073;58;1145267;-75
2022/10/25 22:48:10;;;;;;;20.53;11.27;;;;;;;12.15;100.00;100899.97;5000095;58;1145205;-75
2022/10/25 22:53:16;;;;;;;29.43;14.67;;;;;;;12.16;100.00;100897.20;4973790;59;1145262;-75
2022/10/25 22:58:23;;;;;;;25.50;12.03;;;;;;;12.06;100.00;100901.54;5001185;58;1145242;-76
2022/10/25 23:03:42;;;;;;;14.00;8.60;;;;;;;11.95;100.00;100905.48;4985874;58;1145182;-76